sensor_id;sensor_type;location;lat;lon;timestamp;temperature;humidity
66835;HTU21D;53743;51.100;5.874;2023-02-13T00:00:05;6.34;98.97
66835;HTU21D;53743;51.100;5.874;2023-02-13T00:01:08;6.34;98.64
66835;HTU21D;53743;51.100;5.874;2023-02-13T00:02:09;6.34;98.52
66835;HTU21D;53743;51.100;5.874;2023-02-13T00:03:10;6.33;98.66
66835;HTU21D;53743;51.100;5.874;2023-02-13T00:04:10;6.30;98.82
66835;HTU21D;53743;51.100;5.874;2023-02-13T00:05:11;6.30;98.76
66835;HTU21D;53743;51.100;5.874;2023-02-13T00:06:11;6.31;98.74
66835;HTU21D;53743;51.100;5.874;2023-02-13T00:07:12;6.29;98.92
66835;HTU21D;53743;51.100;5.874;2023-02-13T00:08:13;6.31;98.59
66835;HTU21D;53743;51.100;5.874;2023-02-13T00:09:14;6.31;98.62
66835;HTU21D;53743;51.100;5.874;2023-02-13T00:10:15;6.34;98.43
66835;HTU21D;53743;51.100;5.874;2023-02-13T00:11:16;6.29;98.53
66835;HTU21D;53743;51.100;5.874;2023-02-13T00:12:16;6.29;98.64
66835;HTU21D;53743;51.100;5.874;2023-02-13T00:13:17;6.27;98.66
66835;HTU21D;53743;51.100;5.874;2023-02-13T00:14:17;6.26;98.94
66835;HTU21D;53743;51.100;5.874;2023-02-13T00:15:18;6.25;99.04
66835;HTU21D;53743;51.100;5.874;2023-02-13T00:16:19;6.25;99.13
66835;HTU21D;53743;51.100;5.874;2023-02-13T00:17:19;6.23;99.00
66835;HTU21D;53743;51.100;5.874;2023-02-13T00:18:20;6.25;98.93
66835;HTU21D;53743;51.100;5.874;2023-02-13T00:19:20;6.26;98.85
66835;HTU21D;53743;51.100;5.874;2023-02-13T00:20:21;6.25;98.68
66835;HTU21D;53743;51.100;5.874;2023-02-13T00:21:21;0.00;98.79
66835;HTU21D;53743;51.100;5.874;2023-02-13T00:22:22;6.24;98.74
66835;HTU21D;53743;51.100;5.874;2023-02-13T00:23:23;6.25;98.52
66835;HTU21D;53743;51.100;5.874;2023-02-13T00:24:24;6.25;98.80
66835;HTU21D;53743;51.100;5.874;2023-02-13T00:25:25;6.24;98.90
66835;HTU21D;53743;51.100;5.874;2023-02-13T00:26:25;6.23;99.06
66835;HTU21D;53743;51.100;5.874;2023-02-13T00:27:26;6.23;98.95
66835;HTU21D;53743;51.100;5.874;2023-02-13T00:28:27;6.22;99.09
66835;HTU21D;53743;51.100;5.874;2023-02-13T00:29:27;6.24;99.16
66835;HTU21D;53743;51.100;5.874;2023-02-13T00:30:28;6.24;99.04
66835;HTU21D;53743;51.100;5.874;2023-02-13T00:31:28;6.24;99.20
66835;HTU21D;53743;51.100;5.874;2023-02-13T00:32:29;6.22;99.21
66835;HTU21D;53743;51.100;5.874;2023-02-13T00:33:31;6.22;99.12
66835;HTU21D;53743;51.100;5.874;2023-02-13T00:34:31;6.22;99.21
66835;HTU21D;53743;51.100;5.874;2023-02-13T00:35:32;6.22;99.28
66835;HTU21D;53743;51.100;5.874;2023-02-13T00:36:33;6.23;99.30
66835;HTU21D;53743;51.100;5.874;2023-02-13T00:37:33;6.22;99.27
66835;HTU21D;53743;51.100;5.874;2023-02-13T00:38:36;6.22;99.39
66835;HTU21D;53743;51.100;5.874;2023-02-13T00:39:37;6.22;99.16
66835;HTU21D;53743;51.100;5.874;2023-02-13T00:40:37;6.22;98.95
66835;HTU21D;53743;51.100;5.874;2023-02-13T00:41:40;6.20;98.83
66835;HTU21D;53743;51.100;5.874;2023-02-13T00:42:42;6.15;98.68
66835;HTU21D;53743;51.100;5.874;2023-02-13T00:43:44;6.14;98.39
66835;HTU21D;53743;51.100;5.874;2023-02-13T00:44:45;6.12;98.39
66835;HTU21D;53743;51.100;5.874;2023-02-13T00:45:45;6.10;98.08
66835;HTU21D;53743;51.100;5.874;2023-02-13T00:46:46;6.08;97.98
66835;HTU21D;53743;51.100;5.874;2023-02-13T00:47:46;6.05;97.85
66835;HTU21D;53743;51.100;5.874;2023-02-13T00:48:47;6.05;97.82
66835;HTU21D;53743;51.100;5.874;2023-02-13T00:49:47;6.04;97.60
66835;HTU21D;53743;51.100;5.874;2023-02-13T00:50:48;6.01;97.41
66835;HTU21D;53743;51.100;5.874;2023-02-13T00:51:49;5.99;97.41
66835;HTU21D;53743;51.100;5.874;2023-02-13T00:52:49;5.98;97.33
66835;HTU21D;53743;51.100;5.874;2023-02-13T00:53:50;5.98;97.18
66835;HTU21D;53743;51.100;5.874;2023-02-13T00:54:50;5.96;97.15
66835;HTU21D;53743;51.100;5.874;2023-02-13T00:55:51;5.94;97.02
66835;HTU21D;53743;51.100;5.874;2023-02-13T00:56:52;5.93;96.92
66835;HTU21D;53743;51.100;5.874;2023-02-13T00:57:52;5.91;96.85
66835;HTU21D;53743;51.100;5.874;2023-02-13T00:58:53;5.91;96.84
66835;HTU21D;53743;51.100;5.874;2023-02-13T00:59:53;5.91;96.68
66835;HTU21D;53743;51.100;5.874;2023-02-13T01:00:54;5.90;96.39
66835;HTU21D;53743;51.100;5.874;2023-02-13T01:01:55;5.89;96.30
66835;HTU21D;53743;51.100;5.874;2023-02-13T01:02:55;5.87;96.16
66835;HTU21D;53743;51.100;5.874;2023-02-13T01:03:56;5.86;96.17
66835;HTU21D;53743;51.100;5.874;2023-02-13T01:04:56;5.84;96.23
66835;HTU21D;53743;51.100;5.874;2023-02-13T01:05:58;5.82;96.28
66835;HTU21D;53743;51.100;5.874;2023-02-13T01:06:59;5.83;96.19
66835;HTU21D;53743;51.100;5.874;2023-02-13T01:08:00;5.83;96.07
66835;HTU21D;53743;51.100;5.874;2023-02-13T01:09:02;5.84;96.01
66835;HTU21D;53743;51.100;5.874;2023-02-13T01:10:03;5.82;95.86
66835;HTU21D;53743;51.100;5.874;2023-02-13T01:11:04;5.82;95.91
66835;HTU21D;53743;51.100;5.874;2023-02-13T01:12:05;5.83;96.09
66835;HTU21D;53743;51.100;5.874;2023-02-13T01:13:07;5.83;96.32
66835;HTU21D;53743;51.100;5.874;2023-02-13T01:14:07;0.00;96.66
66835;HTU21D;53743;51.100;5.874;2023-02-13T01:15:08;5.83;96.97
66835;HTU21D;53743;51.100;5.874;2023-02-13T01:16:09;5.84;97.23
66835;HTU21D;53743;51.100;5.874;2023-02-13T01:17:09;5.85;97.20
66835;HTU21D;53743;51.100;5.874;2023-02-13T01:18:13;5.84;97.42
66835;HTU21D;53743;51.100;5.874;2023-02-13T01:19:14;5.85;97.38
66835;HTU21D;53743;51.100;5.874;2023-02-13T01:20:14;5.83;97.59
66835;HTU21D;53743;51.100;5.874;2023-02-13T01:21:20;5.82;97.30
66835;HTU21D;53743;51.100;5.874;2023-02-13T01:22:21;5.80;97.24
66835;HTU21D;53743;51.100;5.874;2023-02-13T01:23:22;5.80;97.26
66835;HTU21D;53743;51.100;5.874;2023-02-13T01:24:23;5.79;97.55
66835;HTU21D;53743;51.100;5.874;2023-02-13T01:25:24;5.79;97.82
66835;HTU21D;53743;51.100;5.874;2023-02-13T01:26:25;5.79;97.61
66835;HTU21D;53743;51.100;5.874;2023-02-13T01:27:28;5.79;97.32
66835;HTU21D;53743;51.100;5.874;2023-02-13T01:28:29;5.77;97.48
66835;HTU21D;53743;51.100;5.874;2023-02-13T01:29:30;5.77;97.60
66835;HTU21D;53743;51.100;5.874;2023-02-13T01:30:30;5.76;97.62
66835;HTU21D;53743;51.100;5.874;2023-02-13T01:31:31;5.76;97.64
66835;HTU21D;53743;51.100;5.874;2023-02-13T01:32:31;5.74;97.94
66835;HTU21D;53743;51.100;5.874;2023-02-13T01:33:32;5.75;98.05
66835;HTU21D;53743;51.100;5.874;2023-02-13T01:34:33;5.75;98.17
66835;HTU21D;53743;51.100;5.874;2023-02-13T01:35:34;5.75;98.11
66835;HTU21D;53743;51.100;5.874;2023-02-13T01:36:35;5.76;98.30
66835;HTU21D;53743;51.100;5.874;2023-02-13T01:37:36;5.77;98.37
66835;HTU21D;53743;51.100;5.874;2023-02-13T01:38:39;5.77;98.49
66835;HTU21D;53743;51.100;5.874;2023-02-13T01:39:40;5.77;98.49
66835;HTU21D;53743;51.100;5.874;2023-02-13T01:40:51;5.76;98.56
66835;HTU21D;53743;51.100;5.874;2023-02-13T01:41:52;5.74;98.53
66835;HTU21D;53743;51.100;5.874;2023-02-13T01:42:53;5.74;98.35
66835;HTU21D;53743;51.100;5.874;2023-02-13T01:43:56;5.72;98.50
66835;HTU21D;53743;51.100;5.874;2023-02-13T01:45:00;5.74;98.68
66835;HTU21D;53743;51.100;5.874;2023-02-13T01:46:01;5.70;98.37
66835;HTU21D;53743;51.100;5.874;2023-02-13T01:47:02;5.69;98.03
66835;HTU21D;53743;51.100;5.874;2023-02-13T01:48:27;5.68;97.99
66835;HTU21D;53743;51.100;5.874;2023-02-13T01:49:27;5.64;97.62
66835;HTU21D;53743;51.100;5.874;2023-02-13T01:50:38;5.62;97.37
66835;HTU21D;53743;51.100;5.874;2023-02-13T01:51:42;5.60;97.13
66835;HTU21D;53743;51.100;5.874;2023-02-13T01:52:49;5.59;96.94
66835;HTU21D;53743;51.100;5.874;2023-02-13T01:54:00;5.56;96.56
66835;HTU21D;53743;51.100;5.874;2023-02-13T01:55:04;5.55;96.27
66835;HTU21D;53743;51.100;5.874;2023-02-13T01:56:19;5.52;96.17
66835;HTU21D;53743;51.100;5.874;2023-02-13T01:57:23;5.51;95.95
66835;HTU21D;53743;51.100;5.874;2023-02-13T01:58:31;5.49;95.75
66835;HTU21D;53743;51.100;5.874;2023-02-13T01:59:48;5.47;95.73
66835;HTU21D;53743;51.100;5.874;2023-02-13T02:01:56;5.41;95.30
66835;HTU21D;53743;51.100;5.874;2023-02-13T02:03:09;5.40;95.28
66835;HTU21D;53743;51.100;5.874;2023-02-13T02:04:24;5.39;95.04
66835;HTU21D;53743;51.100;5.874;2023-02-13T02:05:31;5.37;94.89
66835;HTU21D;53743;51.100;5.874;2023-02-13T02:06:43;5.35;94.71
66835;HTU21D;53743;51.100;5.874;2023-02-13T02:07:45;5.33;94.82
66835;HTU21D;53743;51.100;5.874;2023-02-13T02:08:49;5.31;94.56
66835;HTU21D;53743;51.100;5.874;2023-02-13T02:09:58;5.28;94.42
66835;HTU21D;53743;51.100;5.874;2023-02-13T02:11:18;5.24;94.47
66835;HTU21D;53743;51.100;5.874;2023-02-13T02:13:53;5.16;94.39
66835;HTU21D;53743;51.100;5.874;2023-02-13T02:15:05;5.12;94.39
66835;HTU21D;53743;51.100;5.874;2023-02-13T02:16:06;5.11;94.39
66835;HTU21D;53743;51.100;5.874;2023-02-13T02:17:08;5.09;94.46
66835;HTU21D;53743;51.100;5.874;2023-02-13T02:18:17;5.07;94.23
66835;HTU21D;53743;51.100;5.874;2023-02-13T02:19:37;5.07;94.10
66835;HTU21D;53743;51.100;5.874;2023-02-13T02:22:04;5.02;94.09
66835;HTU21D;53743;51.100;5.874;2023-02-13T02:24:25;4.98;94.29
66835;HTU21D;53743;51.100;5.874;2023-02-13T02:28:43;4.96;94.39
66835;HTU21D;53743;51.100;5.874;2023-02-13T02:30:16;4.94;94.23
66835;HTU21D;53743;51.100;5.874;2023-02-13T02:37:23;4.75;93.06
66835;HTU21D;53743;51.100;5.874;2023-02-13T02:39:02;4.71;93.19
66835;HTU21D;53743;51.100;5.874;2023-02-13T02:40:17;4.67;93.03
66835;HTU21D;53743;51.100;5.874;2023-02-13T02:41:57;4.65;93.01
66835;HTU21D;53743;51.100;5.874;2023-02-13T02:44:31;4.58;93.03
66835;HTU21D;53743;51.100;5.874;2023-02-13T02:45:59;4.53;93.00
66835;HTU21D;53743;51.100;5.874;2023-02-13T02:48:54;4.49;92.84
66835;HTU21D;53743;51.100;5.874;2023-02-13T02:50:34;4.47;92.79
66835;HTU21D;53743;51.100;5.874;2023-02-13T02:53:15;4.45;92.43
66835;HTU21D;53743;51.100;5.874;2023-02-13T02:54:21;4.44;92.47
66835;HTU21D;53743;51.100;5.874;2023-02-13T02:55:57;4.42;92.37
66835;HTU21D;53743;51.100;5.874;2023-02-13T02:57:10;4.41;92.42
66835;HTU21D;53743;51.100;5.874;2023-02-13T02:59:15;4.39;92.58
66835;HTU21D;53743;51.100;5.874;2023-02-13T03:00:21;4.36;92.63
66835;HTU21D;53743;51.100;5.874;2023-02-13T03:01:44;4.35;92.63
66835;HTU21D;53743;51.100;5.874;2023-02-13T03:03:10;4.32;92.60
66835;HTU21D;53743;51.100;5.874;2023-02-13T03:05:02;4.28;92.48
66835;HTU21D;53743;51.100;5.874;2023-02-13T03:06:31;4.23;92.69
66835;HTU21D;53743;51.100;5.874;2023-02-13T03:07:33;4.21;92.70
66835;HTU21D;53743;51.100;5.874;2023-02-13T03:08:34;4.21;92.70
66835;HTU21D;53743;51.100;5.874;2023-02-13T03:10:00;4.22;92.62
66835;HTU21D;53743;51.100;5.874;2023-02-13T03:11:21;4.21;92.56
66835;HTU21D;53743;51.100;5.874;2023-02-13T03:13:11;4.21;92.62
66835;HTU21D;53743;51.100;5.874;2023-02-13T03:14:26;4.18;92.77
66835;HTU21D;53743;51.100;5.874;2023-02-13T03:15:28;4.16;92.92
66835;HTU21D;53743;51.100;5.874;2023-02-13T03:16:29;4.13;93.04
66835;HTU21D;53743;51.100;5.874;2023-02-13T03:17:49;4.12;92.75
66835;HTU21D;53743;51.100;5.874;2023-02-13T03:19:40;4.08;92.69
66835;HTU21D;53743;51.100;5.874;2023-02-13T03:21:16;4.06;92.57
66835;HTU21D;53743;51.100;5.874;2023-02-13T03:22:56;4.04;92.26
66835;HTU21D;53743;51.100;5.874;2023-02-13T03:24:28;3.99;92.21
66835;HTU21D;53743;51.100;5.874;2023-02-13T03:26:59;3.95;92.07
66835;HTU21D;53743;51.100;5.874;2023-02-13T03:28:18;3.94;91.85
66835;HTU21D;53743;51.100;5.874;2023-02-13T03:29:59;3.91;91.99
66835;HTU21D;53743;51.100;5.874;2023-02-13T03:31:34;3.89;92.01
66835;HTU21D;53743;51.100;5.874;2023-02-13T03:34:08;3.87;92.18
66835;HTU21D;53743;51.100;5.874;2023-02-13T03:36:57;3.85;92.15
66835;HTU21D;53743;51.100;5.874;2023-02-13T03:39:05;3.78;92.29
66835;HTU21D;53743;51.100;5.874;2023-02-13T03:40:15;3.76;92.11
66835;HTU21D;53743;51.100;5.874;2023-02-13T03:41:25;3.74;92.21
66835;HTU21D;53743;51.100;5.874;2023-02-13T03:44:01;3.71;92.46
66835;HTU21D;53743;51.100;5.874;2023-02-13T03:45:10;3.70;92.46
66835;HTU21D;53743;51.100;5.874;2023-02-13T03:46:41;3.70;92.59
66835;HTU21D;53743;51.100;5.874;2023-02-13T03:47:45;3.70;92.64
66835;HTU21D;53743;51.100;5.874;2023-02-13T03:48:46;3.70;92.32
66835;HTU21D;53743;51.100;5.874;2023-02-13T03:50:09;3.69;92.31
66835;HTU21D;53743;51.100;5.874;2023-02-13T03:53:00;3.65;92.33
66835;HTU21D;53743;51.100;5.874;2023-02-13T03:54:16;3.63;92.24
66835;HTU21D;53743;51.100;5.874;2023-02-13T03:55:23;3.61;92.21
66835;HTU21D;53743;51.100;5.874;2023-02-13T03:56:45;3.59;92.53
66835;HTU21D;53743;51.100;5.874;2023-02-13T03:58:20;3.56;92.25
66835;HTU21D;53743;51.100;5.874;2023-02-13T03:59:41;3.54;92.34
66835;HTU21D;53743;51.100;5.874;2023-02-13T04:00:46;3.53;92.46
66835;HTU21D;53743;51.100;5.874;2023-02-13T04:02:16;3.52;92.60
66835;HTU21D;53743;51.100;5.874;2023-02-13T04:05:07;3.54;92.63
66835;HTU21D;53743;51.100;5.874;2023-02-13T04:06:13;3.52;92.75
66835;HTU21D;53743;51.100;5.874;2023-02-13T04:07:18;3.50;92.90
66835;HTU21D;53743;51.100;5.874;2023-02-13T04:08:30;3.50;93.05
66835;HTU21D;53743;51.100;5.874;2023-02-13T04:09:36;3.48;93.05
66835;HTU21D;53743;51.100;5.874;2023-02-13T04:10:49;3.46;93.07
66835;HTU21D;53743;51.100;5.874;2023-02-13T04:12:14;3.45;93.37
66835;HTU21D;53743;51.100;5.874;2023-02-13T04:13:29;3.45;93.31
66835;HTU21D;53743;51.100;5.874;2023-02-13T04:15:42;3.44;93.33
66835;HTU21D;53743;51.100;5.874;2023-02-13T04:16:51;3.47;93.26
66835;HTU21D;53743;51.100;5.874;2023-02-13T04:18:05;3.48;93.46
66835;HTU21D;53743;51.100;5.874;2023-02-13T04:19:09;3.50;93.41
66835;HTU21D;53743;51.100;5.874;2023-02-13T04:20:10;3.52;93.32
66835;HTU21D;53743;51.100;5.874;2023-02-13T04:21:11;3.55;93.53
66835;HTU21D;53743;51.100;5.874;2023-02-13T04:22:12;3.53;93.74
66835;HTU21D;53743;51.100;5.874;2023-02-13T04:23:14;3.55;93.78
66835;HTU21D;53743;51.100;5.874;2023-02-13T04:24:15;3.57;93.90
66835;HTU21D;53743;51.100;5.874;2023-02-13T04:25:17;3.56;93.94
66835;HTU21D;53743;51.100;5.874;2023-02-13T04:26:22;3.55;93.75
66835;HTU21D;53743;51.100;5.874;2023-02-13T04:27:26;3.53;93.56
66835;HTU21D;53743;51.100;5.874;2023-02-13T04:28:27;3.52;93.62
66835;HTU21D;53743;51.100;5.874;2023-02-13T04:29:28;3.50;93.53
66835;HTU21D;53743;51.100;5.874;2023-02-13T04:30:29;3.49;93.52
66835;HTU21D;53743;51.100;5.874;2023-02-13T04:31:30;3.48;93.53
66835;HTU21D;53743;51.100;5.874;2023-02-13T04:32:30;3.46;93.49
66835;HTU21D;53743;51.100;5.874;2023-02-13T04:33:31;3.47;93.66
66835;HTU21D;53743;51.100;5.874;2023-02-13T04:34:31;3.48;93.51
66835;HTU21D;53743;51.100;5.874;2023-02-13T04:35:32;3.49;93.53
66835;HTU21D;53743;51.100;5.874;2023-02-13T04:36:34;3.49;93.68
66835;HTU21D;53743;51.100;5.874;2023-02-13T04:37:35;3.53;93.69
66835;HTU21D;53743;51.100;5.874;2023-02-13T04:38:35;3.53;93.69
66835;HTU21D;53743;51.100;5.874;2023-02-13T04:39:36;3.54;93.75
66835;HTU21D;53743;51.100;5.874;2023-02-13T04:40:36;3.53;93.66
66835;HTU21D;53743;51.100;5.874;2023-02-13T04:41:37;3.53;93.40
66835;HTU21D;53743;51.100;5.874;2023-02-13T04:42:37;3.50;93.15
66835;HTU21D;53743;51.100;5.874;2023-02-13T04:43:38;3.48;0.00
66835;HTU21D;53743;51.100;5.874;2023-02-13T04:44:39;3.46;93.02
66835;HTU21D;53743;51.100;5.874;2023-02-13T04:45:39;3.44;92.83
66835;HTU21D;53743;51.100;5.874;2023-02-13T04:46:40;3.43;92.95
66835;HTU21D;53743;51.100;5.874;2023-02-13T04:47:40;3.41;93.08
66835;HTU21D;53743;51.100;5.874;2023-02-13T04:48:41;3.41;93.23
66835;HTU21D;53743;51.100;5.874;2023-02-13T04:49:41;3.41;93.19
66835;HTU21D;53743;51.100;5.874;2023-02-13T04:50:42;3.40;93.00
66835;HTU21D;53743;51.100;5.874;2023-02-13T04:51:43;3.41;93.21
66835;HTU21D;53743;51.100;5.874;2023-02-13T04:52:44;3.41;93.42
66835;HTU21D;53743;51.100;5.874;2023-02-13T04:53:44;3.41;93.88
66835;HTU21D;53743;51.100;5.874;2023-02-13T04:54:45;3.42;93.88
66835;HTU21D;53743;51.100;5.874;2023-02-13T04:55:46;3.42;94.19
66835;HTU21D;53743;51.100;5.874;2023-02-13T04:56:46;3.43;94.30
66835;HTU21D;53743;51.100;5.874;2023-02-13T04:57:47;3.41;94.38
66835;HTU21D;53743;51.100;5.874;2023-02-13T04:58:47;3.42;94.46
66835;HTU21D;53743;51.100;5.874;2023-02-13T04:59:48;3.39;94.73
66835;HTU21D;53743;51.100;5.874;2023-02-13T05:00:48;3.40;94.81
66835;HTU21D;53743;51.100;5.874;2023-02-13T05:01:49;3.39;94.70
66835;HTU21D;53743;51.100;5.874;2023-02-13T05:02:49;3.41;94.97
66835;HTU21D;53743;51.100;5.874;2023-02-13T05:03:50;3.40;95.17
66835;HTU21D;53743;51.100;5.874;2023-02-13T05:04:51;3.41;95.06
66835;HTU21D;53743;51.100;5.874;2023-02-13T05:05:51;3.41;95.26
66835;HTU21D;53743;51.100;5.874;2023-02-13T05:06:52;3.39;95.26
66835;HTU21D;53743;51.100;5.874;2023-02-13T05:07:52;3.38;94.99
66835;HTU21D;53743;51.100;5.874;2023-02-13T05:08:53;3.33;94.62
66835;HTU21D;53743;51.100;5.874;2023-02-13T05:09:53;3.27;94.72
66835;HTU21D;53743;51.100;5.874;2023-02-13T05:10:54;3.26;94.56
66835;HTU21D;53743;51.100;5.874;2023-02-13T05:11:54;3.24;94.55
66835;HTU21D;53743;51.100;5.874;2023-02-13T05:12:55;3.23;94.56
66835;HTU21D;53743;51.100;5.874;2023-02-13T05:13:56;3.20;94.49
66835;HTU21D;53743;51.100;5.874;2023-02-13T05:14:56;3.19;94.41
66835;HTU21D;53743;51.100;5.874;2023-02-13T05:15:57;3.18;94.31
66835;HTU21D;53743;51.100;5.874;2023-02-13T05:16:57;3.17;94.36
66835;HTU21D;53743;51.100;5.874;2023-02-13T05:17:58;3.16;94.32
66835;HTU21D;53743;51.100;5.874;2023-02-13T05:18:59;3.12;94.39
66835;HTU21D;53743;51.100;5.874;2023-02-13T05:19:59;3.09;93.94
66835;HTU21D;53743;51.100;5.874;2023-02-13T05:21:00;3.08;93.94
66835;HTU21D;53743;51.100;5.874;2023-02-13T05:22:19;3.06;94.07
66835;HTU21D;53743;51.100;5.874;2023-02-13T05:23:38;3.06;93.93
66835;HTU21D;53743;51.100;5.874;2023-02-13T05:24:39;3.06;94.04
66835;HTU21D;53743;51.100;5.874;2023-02-13T05:25:41;3.08;94.22
66835;HTU21D;53743;51.100;5.874;2023-02-13T05:26:41;3.09;94.31
66835;HTU21D;53743;51.100;5.874;2023-02-13T05:27:42;3.11;94.44
66835;HTU21D;53743;51.100;5.874;2023-02-13T05:28:42;3.12;94.62
66835;HTU21D;53743;51.100;5.874;2023-02-13T05:30:02;3.14;94.75
66835;HTU21D;53743;51.100;5.874;2023-02-13T05:31:03;3.14;95.36
66835;HTU21D;53743;51.100;5.874;2023-02-13T05:32:04;3.13;95.28
66835;HTU21D;53743;51.100;5.874;2023-02-13T05:33:04;3.13;95.58
66835;HTU21D;53743;51.100;5.874;2023-02-13T05:34:05;3.15;95.73
66835;HTU21D;53743;51.100;5.874;2023-02-13T05:35:06;3.15;95.68
66835;HTU21D;53743;51.100;5.874;2023-02-13T05:36:07;3.13;95.83
66835;HTU21D;53743;51.100;5.874;2023-02-13T05:37:07;3.15;95.91
66835;HTU21D;53743;51.100;5.874;2023-02-13T05:38:08;3.15;95.92
66835;HTU21D;53743;51.100;5.874;2023-02-13T05:39:09;3.13;96.15
66835;HTU21D;53743;51.100;5.874;2023-02-13T05:40:10;3.14;96.30
66835;HTU21D;53743;51.100;5.874;2023-02-13T05:41:12;3.14;96.38
66835;HTU21D;53743;51.100;5.874;2023-02-13T05:42:13;3.16;96.40
66835;HTU21D;53743;51.100;5.874;2023-02-13T05:43:13;3.15;96.48
66835;HTU21D;53743;51.100;5.874;2023-02-13T05:44:14;3.16;96.43
66835;HTU21D;53743;51.100;5.874;2023-02-13T05:45:15;3.15;96.35
66835;HTU21D;53743;51.100;5.874;2023-02-13T05:46:15;3.17;96.54
66835;HTU21D;53743;51.100;5.874;2023-02-13T05:47:16;3.16;96.62
66835;HTU21D;53743;51.100;5.874;2023-02-13T05:48:17;3.16;96.63
66835;HTU21D;53743;51.100;5.874;2023-02-13T05:49:17;3.14;96.59
66835;HTU21D;53743;51.100;5.874;2023-02-13T05:50:18;3.13;96.56
66835;HTU21D;53743;51.100;5.874;2023-02-13T05:51:19;3.13;96.50
66835;HTU21D;53743;51.100;5.874;2023-02-13T05:52:20;3.10;96.40
66835;HTU21D;53743;51.100;5.874;2023-02-13T05:53:21;3.08;96.22
66835;HTU21D;53743;51.100;5.874;2023-02-13T05:54:21;3.04;96.09
66835;HTU21D;53743;51.100;5.874;2023-02-13T05:55:22;3.02;95.87
66835;HTU21D;53743;51.100;5.874;2023-02-13T05:56:22;2.98;95.68
66835;HTU21D;53743;51.100;5.874;2023-02-13T05:57:23;2.96;95.75
66835;HTU21D;53743;51.100;5.874;2023-02-13T05:58:24;2.95;95.68
66835;HTU21D;53743;51.100;5.874;2023-02-13T05:59:24;2.95;95.36
66835;HTU21D;53743;51.100;5.874;2023-02-13T06:00:25;2.94;95.30
66835;HTU21D;53743;51.100;5.874;2023-02-13T06:01:26;2.95;94.87
66835;HTU21D;53743;51.100;5.874;2023-02-13T06:02:26;2.94;94.71
66835;HTU21D;53743;51.100;5.874;2023-02-13T06:03:28;2.93;94.56
66835;HTU21D;53743;51.100;5.874;2023-02-13T06:04:29;2.93;94.43
66835;HTU21D;53743;51.100;5.874;2023-02-13T06:05:30;2.93;94.33
66835;HTU21D;53743;51.100;5.874;2023-02-13T06:06:30;2.91;94.28
66835;HTU21D;53743;51.100;5.874;2023-02-13T06:07:31;2.89;94.52
66835;HTU21D;53743;51.100;5.874;2023-02-13T06:08:32;2.90;94.39
66835;HTU21D;53743;51.100;5.874;2023-02-13T06:09:32;2.90;94.14
66835;HTU21D;53743;51.100;5.874;2023-02-13T06:10:33;2.90;94.02
66835;HTU21D;53743;51.100;5.874;2023-02-13T06:11:33;2.90;93.70
66835;HTU21D;53743;51.100;5.874;2023-02-13T06:12:34;2.89;93.78
66835;HTU21D;53743;51.100;5.874;2023-02-13T06:13:35;2.87;93.63
66835;HTU21D;53743;51.100;5.874;2023-02-13T06:14:35;2.85;93.59
66835;HTU21D;53743;51.100;5.874;2023-02-13T06:15:36;2.84;93.52
66835;HTU21D;53743;51.100;5.874;2023-02-13T06:16:36;2.83;93.32
66835;HTU21D;53743;51.100;5.874;2023-02-13T06:17:37;2.83;93.07
66835;HTU21D;53743;51.100;5.874;2023-02-13T06:18:38;2.82;92.85
66835;HTU21D;53743;51.100;5.874;2023-02-13T06:19:38;2.80;92.73
66835;HTU21D;53743;51.100;5.874;2023-02-13T06:20:39;2.80;92.62
66835;HTU21D;53743;51.100;5.874;2023-02-13T06:21:39;2.76;92.50
66835;HTU21D;53743;51.100;5.874;2023-02-13T06:22:40;2.73;92.38
66835;HTU21D;53743;51.100;5.874;2023-02-13T06:23:40;2.71;92.29
66835;HTU21D;53743;51.100;5.874;2023-02-13T06:24:41;2.67;92.24
66835;HTU21D;53743;51.100;5.874;2023-02-13T06:25:42;2.65;92.43
66835;HTU21D;53743;51.100;5.874;2023-02-13T06:26:42;0.00;92.48
66835;HTU21D;53743;51.100;5.874;2023-02-13T06:27:43;2.58;92.69
66835;HTU21D;53743;51.100;5.874;2023-02-13T06:28:43;2.55;92.55
66835;HTU21D;53743;51.100;5.874;2023-02-13T06:29:44;2.53;92.47
66835;HTU21D;53743;51.100;5.874;2023-02-13T06:30:45;2.52;92.52
66835;HTU21D;53743;51.100;5.874;2023-02-13T06:31:45;2.52;92.33
66835;HTU21D;53743;51.100;5.874;2023-02-13T06:32:47;2.49;92.23
66835;HTU21D;53743;51.100;5.874;2023-02-13T06:33:48;2.46;92.44
66835;HTU21D;53743;51.100;5.874;2023-02-13T06:34:49;2.44;92.43
66835;HTU21D;53743;51.100;5.874;2023-02-13T06:35:49;2.42;92.88
66835;HTU21D;53743;51.100;5.874;2023-02-13T06:36:50;2.41;93.06
66835;HTU21D;53743;51.100;5.874;2023-02-13T06:37:52;2.41;93.05
66835;HTU21D;53743;51.100;5.874;2023-02-13T06:38:52;2.39;93.13
66835;HTU21D;53743;51.100;5.874;2023-02-13T06:39:53;2.37;93.38
66835;HTU21D;53743;51.100;5.874;2023-02-13T06:40:59;2.34;93.59
66835;HTU21D;53743;51.100;5.874;2023-02-13T06:42:01;2.32;93.81
66835;HTU21D;53743;51.100;5.874;2023-02-13T06:43:01;2.30;93.96
66835;HTU21D;53743;51.100;5.874;2023-02-13T06:44:02;2.28;94.21
66835;HTU21D;53743;51.100;5.874;2023-02-13T06:45:03;2.27;94.20
66835;HTU21D;53743;51.100;5.874;2023-02-13T06:46:05;2.26;94.33
66835;HTU21D;53743;51.100;5.874;2023-02-13T06:47:06;2.25;94.29
66835;HTU21D;53743;51.100;5.874;2023-02-13T06:48:08;2.23;94.27
66835;HTU21D;53743;51.100;5.874;2023-02-13T06:49:09;2.22;94.58
66835;HTU21D;53743;51.100;5.874;2023-02-13T06:50:11;2.22;94.62
66835;HTU21D;53743;51.100;5.874;2023-02-13T06:51:12;2.20;94.73
66835;HTU21D;53743;51.100;5.874;2023-02-13T06:52:13;2.20;94.63
66835;HTU21D;53743;51.100;5.874;2023-02-13T06:53:13;2.16;94.74
66835;HTU21D;53743;51.100;5.874;2023-02-13T06:54:14;2.15;94.78
66835;HTU21D;53743;51.100;5.874;2023-02-13T06:55:15;2.16;94.69
66835;HTU21D;53743;51.100;5.874;2023-02-13T06:56:16;2.16;94.75
66835;HTU21D;53743;51.100;5.874;2023-02-13T06:57:17;2.17;94.59
66835;HTU21D;53743;51.100;5.874;2023-02-13T06:58:19;2.16;94.70
66835;HTU21D;53743;51.100;5.874;2023-02-13T06:59:19;2.17;94.90
66835;HTU21D;53743;51.100;5.874;2023-02-13T07:00:20;2.20;94.87
66835;HTU21D;53743;51.100;5.874;2023-02-13T07:01:21;2.20;94.91
66835;HTU21D;53743;51.100;5.874;2023-02-13T07:02:21;2.19;94.92
66835;HTU21D;53743;51.100;5.874;2023-02-13T07:03:22;2.16;95.01
66835;HTU21D;53743;51.100;5.874;2023-02-13T07:04:23;2.16;95.23
66835;HTU21D;53743;51.100;5.874;2023-02-13T07:05:23;2.19;95.09
66835;HTU21D;53743;51.100;5.874;2023-02-13T07:06:24;2.17;95.22
66835;HTU21D;53743;51.100;5.874;2023-02-13T07:07:24;2.21;95.26
66835;HTU21D;53743;51.100;5.874;2023-02-13T07:08:25;2.20;95.17
66835;HTU21D;53743;51.100;5.874;2023-02-13T07:09:26;2.23;95.30
66835;HTU21D;53743;51.100;5.874;2023-02-13T07:10:26;2.25;95.21
66835;HTU21D;53743;51.100;5.874;2023-02-13T07:11:27;2.27;95.22
66835;HTU21D;53743;51.100;5.874;2023-02-13T07:12:27;2.29;95.31
66835;HTU21D;53743;51.100;5.874;2023-02-13T07:13:28;2.30;95.39
66835;HTU21D;53743;51.100;5.874;2023-02-13T07:14:29;2.35;95.52
66835;HTU21D;53743;51.100;5.874;2023-02-13T07:15:30;2.37;95.43
66835;HTU21D;53743;51.100;5.874;2023-02-13T07:16:31;2.41;95.53
66835;HTU21D;53743;51.100;5.874;2023-02-13T07:17:31;2.43;95.53
66835;HTU21D;53743;51.100;5.874;2023-02-13T07:18:33;2.46;95.43
66835;HTU21D;53743;51.100;5.874;2023-02-13T07:19:33;2.47;95.46